sensor_id;sensor_type;location;lat;lon;timestamp;P1;durP1;ratioP1;P2;durP2;ratioP2
11398;SDS011;5755;48.116;11.608;2024-01-30T00:01:20;12.70;;;7.73;;
11398;SDS011;5755;48.116;11.608;2024-01-30T00:03:46;13.13;;;7.80;;
11398;SDS011;5755;48.116;11.608;2024-01-30T00:06:13;15.07;;;8.57;;
11398;SDS011;5755;48.116;11.608;2024-01-30T00:08:40;12.97;;;8.17;;
11398;SDS011;5755;48.116;11.608;2024-01-30T00:11:08;14.40;;;7.60;;
11398;SDS011;5755;48.116;11.608;2024-01-30T00:13:35;12.47;;;7.10;;
11398;SDS011;5755;48.116;11.608;2024-01-30T00:16:02;14.77;;;7.70;;
11398;SDS011;5755;48.116;11.608;2024-01-30T00:18:29;14.77;;;7.20;;
11398;SDS011;5755;48.116;11.608;2024-01-30T00:20:56;10.37;;;6.53;;
11398;SDS011;5755;48.116;11.608;2024-01-30T00:23:23;10.40;;;6.57;;
11398;SDS011;5755;48.116;11.608;2024-01-30T00:25:50;9.80;;;6.23;;
11398;SDS011;5755;48.116;11.608;2024-01-30T00:28:18;9.63;;;5.97;;
11398;SDS011;5755;48.116;11.608;2024-01-30T00:30:50;9.40;;;6.00;;
11398;SDS011;5755;48.116;11.608;2024-01-30T00:33:17;9.53;;;5.60;;
11398;SDS011;5755;48.116;11.608;2024-01-30T00:35:44;10.03;;;5.73;;
11398;SDS011;5755;48.116;11.608;2024-01-30T00:38:15;10.57;;;5.40;;
11398;SDS011;5755;48.116;11.608;2024-01-30T00:40:42;10.13;;;5.43;;
11398;SDS011;5755;48.116;11.608;2024-01-30T00:43:09;9.33;;;5.97;;
11398;SDS011;5755;48.116;11.608;2024-01-30T00:45:51;10.90;;;5.63;;
11398;SDS011;5755;48.116;11.608;2024-01-30T00:48:18;10.97;;;5.83;;
11398;SDS011;5755;48.116;11.608;2024-01-30T00:50:45;10.10;;;6.07;;
11398;SDS011;5755;48.116;11.608;2024-01-30T00:53:12;8.00;;;5.37;;
11398;SDS011;5755;48.116;11.608;2024-01-30T00:55:39;10.80;;;5.90;;
11398;SDS011;5755;48.116;11.608;2024-01-30T00:58:06;9.37;;;6.03;;
11398;SDS011;5755;48.116;11.608;2024-01-30T01:00:32;9.17;;;5.90;;
11398;SDS011;5755;48.116;11.608;2024-01-30T01:03:01;9.30;;;6.30;;
11398;SDS011;5755;48.116;11.608;2024-01-30T01:05:27;9.90;;;6.37;;
11398;SDS011;5755;48.116;11.608;2024-01-30T01:07:54;8.33;;;5.50;;
11398;SDS011;5755;48.116;11.608;2024-01-30T01:10:21;12.43;;;6.10;;
11398;SDS011;5755;48.116;11.608;2024-01-30T01:12:48;9.23;;;5.80;;
11398;SDS011;5755;48.116;11.608;2024-01-30T01:15:14;12.60;;;6.00;;
11398;SDS011;5755;48.116;11.608;2024-01-30T01:17:41;10.67;;;6.27;;
11398;SDS011;5755;48.116;11.608;2024-01-30T01:20:10;9.40;;;5.83;;
11398;SDS011;5755;48.116;11.608;2024-01-30T01:22:37;12.27;;;6.67;;
11398;SDS011;5755;48.116;11.608;2024-01-30T01:25:03;10.43;;;6.30;;
11398;SDS011;5755;48.116;11.608;2024-01-30T01:27:32;12.23;;;5.80;;
11398;SDS011;5755;48.116;11.608;2024-01-30T01:29:59;12.53;;;6.30;;
11398;SDS011;5755;48.116;11.608;2024-01-30T01:32:32;11.03;;;6.43;;
11398;SDS011;5755;48.116;11.608;2024-01-30T01:34:59;8.23;;;5.77;;
11398;SDS011;5755;48.116;11.608;2024-01-30T01:37:27;8.40;;;5.63;;
11398;SDS011;5755;48.116;11.608;2024-01-30T01:39:54;9.63;;;6.10;;
11398;SDS011;5755;48.116;11.608;2024-01-30T01:42:21;8.53;;;5.77;;
11398;SDS011;5755;48.116;11.608;2024-01-30T01:44:49;11.63;;;6.07;;
11398;SDS011;5755;48.116;11.608;2024-01-30T01:47:16;9.50;;;5.33;;
11398;SDS011;5755;48.116;11.608;2024-01-30T01:49:43;11.60;;;5.73;;
11398;SDS011;5755;48.116;11.608;2024-01-30T01:52:10;9.53;;;5.97;;
11398;SDS011;5755;48.116;11.608;2024-01-30T01:54:38;9.13;;;5.77;;
11398;SDS011;5755;48.116;11.608;2024-01-30T01:57:05;9.67;;;5.63;;
11398;SDS011;5755;48.116;11.608;2024-01-30T01:59:32;8.37;;;5.90;;
11398;SDS011;5755;48.116;11.608;2024-01-30T02:01:59;8.93;;;5.90;;
11398;SDS011;5755;48.116;11.608;2024-01-30T02:04:31;11.30;;;6.20;;
11398;SDS011;5755;48.116;11.608;2024-01-30T02:06:57;11.30;;;6.10;;
11398;SDS011;5755;48.116;11.608;2024-01-30T02:09:24;9.03;;;5.53;;
11398;SDS011;5755;48.116;11.608;2024-01-30T02:11:53;13.83;;;5.70;;
11398;SDS011;5755;48.116;11.608;2024-01-30T02:14:20;7.23;;;4.87;;
11398;SDS011;5755;48.116;11.608;2024-01-30T02:16:47;9.43;;;5.60;;
11398;SDS011;5755;48.116;11.608;2024-01-30T02:19:16;8.63;;;5.17;;
11398;SDS011;5755;48.116;11.608;2024-01-30T02:21:46;8.70;;;5.07;;
11398;SDS011;5755;48.116;11.608;2024-01-30T02:24:13;8.23;;;5.20;;
11398;SDS011;5755;48.116;11.608;2024-01-30T02:26:40;9.13;;;5.23;;
11398;SDS011;5755;48.116;11.608;2024-01-30T02:29:06;7.20;;;4.97;;
11398;SDS011;5755;48.116;11.608;2024-01-30T02:31:33;9.53;;;5.07;;
11398;SDS011;5755;48.116;11.608;2024-01-30T02:34:00;9.60;;;5.47;;
11398;SDS011;5755;48.116;11.608;2024-01-30T02:36:27;9.43;;;5.33;;
11398;SDS011;5755;48.116;11.608;2024-01-30T02:38:55;10.27;;;6.33;;
11398;SDS011;5755;48.116;11.608;2024-01-30T02:41:21;12.13;;;7.00;;
11398;SDS011;5755;48.116;11.608;2024-01-30T02:43:48;9.03;;;5.50;;
11398;SDS011;5755;48.116;11.608;2024-01-30T02:46:15;7.67;;;4.93;;
11398;SDS011;5755;48.116;11.608;2024-01-30T02:48:42;10.27;;;5.70;;
11398;SDS011;5755;48.116;11.608;2024-01-30T02:51:09;9.03;;;4.70;;
11398;SDS011;5755;48.116;11.608;2024-01-30T02:53:35;9.97;;;5.20;;
11398;SDS011;5755;48.116;11.608;2024-01-30T02:56:04;9.83;;;5.33;;
11398;SDS011;5755;48.116;11.608;2024-01-30T02:58:34;7.83;;;5.20;;
11398;SDS011;5755;48.116;11.608;2024-01-30T03:01:01;7.23;;;5.17;;
11398;SDS011;5755;48.116;11.608;2024-01-30T03:03:28;8.07;;;5.13;;
11398;SDS011;5755;48.116;11.608;2024-01-30T03:05:54;9.67;;;4.80;;
11398;SDS011;5755;48.116;11.608;2024-01-30T03:08:20;7.53;;;4.90;;
11398;SDS011;5755;48.116;11.608;2024-01-30T03:10:48;9.53;;;4.57;;
11398;SDS011;5755;48.116;11.608;2024-01-30T03:13:16;6.63;;;4.10;;
11398;SDS011;5755;48.116;11.608;2024-01-30T03:15:43;7.77;;;4.33;;
11398;SDS011;5755;48.116;11.608;2024-01-30T03:18:10;6.17;;;4.10;;
11398;SDS011;5755;48.116;11.608;2024-01-30T03:20:36;9.00;;;4.63;;
11398;SDS011;5755;48.116;11.608;2024-01-30T03:23:03;6.73;;;4.13;;
11398;SDS011;5755;48.116;11.608;2024-01-30T03:25:30;5.20;;;3.93;;
11398;SDS011;5755;48.116;11.608;2024-01-30T03:27:57;6.37;;;4.00;;
11398;SDS011;5755;48.116;11.608;2024-01-30T03:30:25;5.93;;;4.10;;
11398;SDS011;5755;48.116;11.608;2024-01-30T03:32:52;6.93;;;4.73;;
11398;SDS011;5755;48.116;11.608;2024-01-30T03:35:19;6.30;;;4.60;;
11398;SDS011;5755;48.116;11.608;2024-01-30T03:37:46;5.23;;;4.10;;
11398;SDS011;5755;48.116;11.608;2024-01-30T03:40:13;5.37;;;4.00;;
11398;SDS011;5755;48.116;11.608;2024-01-30T03:42:40;6.63;;;3.90;;
11398;SDS011;5755;48.116;11.608;2024-01-30T03:45:07;6.60;;;4.77;;
11398;SDS011;5755;48.116;11.608;2024-01-30T03:47:36;6.90;;;4.23;;
11398;SDS011;5755;48.116;11.608;2024-01-30T03:50:03;6.03;;;3.80;;
11398;SDS011;5755;48.116;11.608;2024-01-30T03:52:30;6.20;;;4.07;;
11398;SDS011;5755;48.116;11.608;2024-01-30T03:54:57;6.93;;;4.60;;
11398;SDS011;5755;48.116;11.608;2024-01-30T03:57:25;6.73;;;4.27;;
11398;SDS011;5755;48.116;11.608;2024-01-30T03:59:51;6.63;;;4.37;;
11398;SDS011;5755;48.116;11.608;2024-01-30T04:02:18;7.47;;;4.23;;
11398;SDS011;5755;48.116;11.608;2024-01-30T04:04:46;6.47;;;4.67;;
11398;SDS011;5755;48.116;11.608;2024-01-30T04:07:13;8.80;;;4.07;;
11398;SDS011;5755;48.116;11.608;2024-01-30T04:09:40;6.07;;;4.23;;
11398;SDS011;5755;48.116;11.608;2024-01-30T04:12:07;6.23;;;4.23;;
11398;SDS011;5755;48.116;11.608;2024-01-30T04:14:33;6.70;;;4.00;;
11398;SDS011;5755;48.116;11.608;2024-01-30T04:17:00;5.90;;;4.27;;
11398;SDS011;5755;48.116;11.608;2024-01-30T04:19:27;6.13;;;3.90;;
11398;SDS011;5755;48.116;11.608;2024-01-30T04:21:55;5.97;;;4.10;;
11398;SDS011;5755;48.116;11.608;2024-01-30T04:24:22;6.57;;;4.17;;
11398;SDS011;5755;48.116;11.608;2024-01-30T04:26:49;9.37;;;5.70;;
11398;SDS011;5755;48.116;11.608;2024-01-30T04:29:15;6.60;;;4.37;;
11398;SDS011;5755;48.116;11.608;2024-01-30T04:31:42;9.30;;;4.40;;
11398;SDS011;5755;48.116;11.608;2024-01-30T04:34:09;7.63;;;4.53;;
11398;SDS011;5755;48.116;11.608;2024-01-30T04:36:36;7.60;;;4.27;;
11398;SDS011;5755;48.116;11.608;2024-01-30T04:39:04;5.90;;;4.07;;
11398;SDS011;5755;48.116;11.608;2024-01-30T04:41:30;7.37;;;3.97;;
11398;SDS011;5755;48.116;11.608;2024-01-30T04:43:57;8.13;;;4.70;;
11398;SDS011;5755;48.116;11.608;2024-01-30T04:46:24;8.37;;;4.43;;
11398;SDS011;5755;48.116;11.608;2024-01-30T04:48:57;5.43;;;3.70;;
11398;SDS011;5755;48.116;11.608;2024-01-30T04:51:24;6.10;;;3.67;;
11398;SDS011;5755;48.116;11.608;2024-01-30T04:53:50;5.50;;;3.93;;
11398;SDS011;5755;48.116;11.608;2024-01-30T04:56:19;6.23;;;4.10;;
11398;SDS011;5755;48.116;11.608;2024-01-30T04:58:45;4.90;;;3.77;;
11398;SDS011;5755;48.116;11.608;2024-01-30T05:01:14;8.00;;;4.07;;
11398;SDS011;5755;48.116;11.608;2024-01-30T05:03:41;5.40;;;3.63;;
11398;SDS011;5755;48.116;11.608;2024-01-30T05:06:08;6.37;;;3.77;;
11398;SDS011;5755;48.116;11.608;2024-01-30T05:08:35;4.53;;;3.50;;
11398;SDS011;5755;48.116;11.608;2024-01-30T05:11:01;4.63;;;3.60;;
11398;SDS011;5755;48.116;11.608;2024-01-30T05:13:30;4.67;;;3.37;;
11398;SDS011;5755;48.116;11.608;2024-01-30T05:16:01;6.00;;;3.37;;
11398;SDS011;5755;48.116;11.608;2024-01-30T05:18:29;5.33;;;3.33;;
11398;SDS011;5755;48.116;11.608;2024-01-30T05:20:55;4.53;;;3.30;;
11398;SDS011;5755;48.116;11.608;2024-01-30T05:23:22;7.87;;;3.40;;
11398;SDS011;5755;48.116;11.608;2024-01-30T05:25:49;5.20;;;3.53;;
11398;SDS011;5755;48.116;11.608;2024-01-30T05:28:16;4.73;;;3.40;;
11398;SDS011;5755;48.116;11.608;2024-01-30T05:30:55;5.13;;;3.30;;
11398;SDS011;5755;48.116;11.608;2024-01-30T05:33:22;5.87;;;3.23;;
11398;SDS011;5755;48.116;11.608;2024-01-30T05:35:49;4.23;;;3.27;;
11398;SDS011;5755;48.116;11.608;2024-01-30T05:38:19;4.83;;;2.90;;
11398;SDS011;5755;48.116;11.608;2024-01-30T05:40:46;4.60;;;3.00;;
11398;SDS011;5755;48.116;11.608;2024-01-30T05:43:13;4.83;;;2.93;;
11398;SDS011;5755;48.116;11.608;2024-01-30T05:45:53;5.03;;;3.20;;
11398;SDS011;5755;48.116;11.608;2024-01-30T05:48:21;4.80;;;2.90;;
11398;SDS011;5755;48.116;11.608;2024-01-30T05:50:48;4.70;;;2.53;;
11398;SDS011;5755;48.116;11.608;2024-01-30T05:53:15;6.40;;;3.40;;
11398;SDS011;5755;48.116;11.608;2024-01-30T05:55:42;6.53;;;3.03;;
11398;SDS011;5755;48.116;11.608;2024-01-30T05:58:09;4.80;;;3.50;;
11398;SDS011;5755;48.116;11.608;2024-01-30T06:00:36;4.03;;;2.90;;
11398;SDS011;5755;48.116;11.608;2024-01-30T06:03:05;5.23;;;3.10;;
11398;SDS011;5755;48.116;11.608;2024-01-30T06:05:32;4.53;;;2.70;;
11398;SDS011;5755;48.116;11.608;2024-01-30T06:07:59;6.20;;;2.80;;
11398;SDS011;5755;48.116;11.608;2024-01-30T06:10:25;4.47;;;2.77;;
11398;SDS011;5755;48.116;11.608;2024-01-30T06:12:52;3.03;;;2.20;;
11398;SDS011;5755;48.116;11.608;2024-01-30T06:15:19;4.47;;;2.53;;
11398;SDS011;5755;48.116;11.608;2024-01-30T06:17:46;4.57;;;2.80;;
11398;SDS011;5755;48.116;11.608;2024-01-30T06:20:15;5.03;;;3.33;;
11398;SDS011;5755;48.116;11.608;2024-01-30T06:22:42;4.77;;;2.37;;
11398;SDS011;5755;48.116;11.608;2024-01-30T06:25:10;3.43;;;2.47;;
11398;SDS011;5755;48.116;11.608;2024-01-30T06:27:37;3.50;;;2.70;;
11398;SDS011;5755;48.116;11.608;2024-01-30T06:30:04;4.13;;;2.63;;
11398;SDS011;5755;48.116;11.608;2024-01-30T06:32:32;4.67;;;3.00;;
11398;SDS011;5755;48.116;11.608;2024-01-30T06:34:59;3.87;;;2.57;;
11398;SDS011;5755;48.116;11.608;2024-01-30T06:37:27;4.37;;;3.07;;
11398;SDS011;5755;48.116;11.608;2024-01-30T06:39:54;5.93;;;3.60;;
11398;SDS011;5755;48.116;11.608;2024-01-30T06:42:21;6.43;;;4.90;;
11398;SDS011;5755;48.116;11.608;2024-01-30T06:44:48;8.57;;;6.60;;
11398;SDS011;5755;48.116;11.608;2024-01-30T06:47:14;8.20;;;6.07;;
11398;SDS011;5755;48.116;11.608;2024-01-30T06:49:41;7.80;;;5.70;;
11398;SDS011;5755;48.116;11.608;2024-01-30T06:52:09;5.67;;;3.33;;
11398;SDS011;5755;48.116;11.608;2024-01-30T06:54:37;5.23;;;4.00;;
11398;SDS011;5755;48.116;11.608;2024-01-30T06:57:04;4.13;;;2.90;;
11398;SDS011;5755;48.116;11.608;2024-01-30T06:59:34;5.03;;;3.47;;
11398;SDS011;5755;48.116;11.608;2024-01-30T07:02:00;7.33;;;5.00;;
11398;SDS011;5755;48.116;11.608;2024-01-30T07:04:33;5.60;;;4.37;;
11398;SDS011;5755;48.116;11.608;2024-01-30T07:07:02;7.27;;;3.97;;
11398;SDS011;5755;48.116;11.608;2024-01-30T07:09:29;12.10;;;4.30;;
11398;SDS011;5755;48.116;11.608;2024-01-30T07:12:12;7.77;;;4.97;;
11398;SDS011;5755;48.116;11.608;2024-01-30T07:14:38;7.30;;;4.20;;
11398;SDS011;5755;48.116;11.608;2024-01-30T07:17:05;7.50;;;4.50;;
11398;SDS011;5755;48.116;11.608;2024-01-30T07:19:32;9.77;;;4.33;;
11398;SDS011;5755;48.116;11.608;2024-01-30T07:21:59;6.40;;;3.80;;
11398;SDS011;5755;48.116;11.608;2024-01-30T07:24:26;8.17;;;3.83;;
11398;SDS011;5755;48.116;11.608;2024-01-30T07:26:53;5.27;;;3.73;;
11398;SDS011;5755;48.116;11.608;2024-01-30T07:29:33;5.27;;;3.60;;
11398;SDS011;5755;48.116;11.608;2024-01-30T07:32:20;5.53;;;3.40;;
11398;SDS011;5755;48.116;11.608;2024-01-30T07:34:46;5.17;;;3.30;;
11398;SDS011;5755;48.116;11.608;2024-01-30T07:37:13;6.43;;;3.60;;
11398;SDS011;5755;48.116;11.608;2024-01-30T07:39:42;7.47;;;3.80;;
11398;SDS011;5755;48.116;11.608;2024-01-30T07:42:09;5.23;;;3.47;;
11398;SDS011;5755;48.116;11.608;2024-01-30T07:44:37;9.53;;;3.70;;
11398;SDS011;5755;48.116;11.608;2024-01-30T07:47:04;7.63;;;3.80;;
11398;SDS011;5755;48.116;11.608;2024-01-30T07:49:32;5.47;;;3.63;;
11398;SDS011;5755;48.116;11.608;2024-01-30T07:51:58;6.40;;;3.37;;
11398;SDS011;5755;48.116;11.608;2024-01-30T07:54:25;5.60;;;3.50;;
11398;SDS011;5755;48.116;11.608;2024-01-30T07:56:52;4.97;;;3.43;;
11398;SDS011;5755;48.116;11.608;2024-01-30T07:59:19;5.50;;;3.20;;
11398;SDS011;5755;48.116;11.608;2024-01-30T08:01:51;5.10;;;3.20;;
11398;SDS011;5755;48.116;11.608;2024-01-30T08:04:17;8.47;;;3.20;;
11398;SDS011;5755;48.116;11.608;2024-01-30T08:06:44;10.90;;;3.27;;
11398;SDS011;5755;48.116;11.608;2024-01-30T08:09:11;9.03;;;4.13;;
11398;SDS011;5755;48.116;11.608;2024-01-30T08:11:38;5.57;;;3.10;;
11398;SDS011;5755;48.116;11.608;2024-01-30T08:14:04;5.17;;;3.10;;
11398;SDS011;5755;48.116;11.608;2024-01-30T08:16:31;7.13;;;3.13;;
11398;SDS011;5755;48.116;11.608;2024-01-30T08:18:59;14.07;;;3.47;;
11398;SDS011;5755;48.116;11.608;2024-01-30T08:21:26;7.50;;;3.53;;
11398;SDS011;5755;48.116;11.608;2024-01-30T08:23:53;6.37;;;3.67;;
11398;SDS011;5755;48.116;11.608;2024-01-30T08:26:20;5.53;;;3.20;;
11398;SDS011;5755;48.116;11.608;2024-01-30T08:28:47;6.30;;;3.20;;
11398;SDS011;5755;48.116;11.608;2024-01-30T08:31:13;4.23;;;2.90;;
11398;SDS011;5755;48.116;11.608;2024-01-30T08:33:40;7.20;;;4.03;;
11398;SDS011;5755;48.116;11.608;2024-01-30T08:36:10;3.63;;;2.77;;
11398;SDS011;5755;48.116;11.608;2024-01-30T08:38:36;6.70;;;2.97;;
11398;SDS011;5755;48.116;11.608;2024-01-30T08:41:03;12.83;;;3.37;;
11398;SDS011;5755;48.116;11.608;2024-01-30T08:43:30;4.47;;;3.03;;
11398;SDS011;5755;48.116;11.608;2024-01-30T08:45:58;5.37;;;3.10;;
11398;SDS011;5755;48.116;11.608;2024-01-30T08:48:25;5.78;;;2.80;;
11398;SDS011;5755;48.116;11.608;2024-01-30T08:50:52;8.47;;;3.00;;
11398;SDS011;5755;48.116;11.608;2024-01-30T08:53:20;9.87;;;3.50;;
11398;SDS011;5755;48.116;11.608;2024-01-30T08:55:47;6.32;;;3.05;;
11398;SDS011;5755;48.116;11.608;2024-01-30T08:58:13;4.85;;;3.22;;
11398;SDS011;5755;48.116;11.608;2024-01-30T09:00:40;5.88;;;2.97;;
11398;SDS011;5755;48.116;11.608;2024-01-30T09:03:07;9.40;;;3.47;;
11398;SDS011;5755;48.116;11.608;2024-01-30T09:05:34;7.00;;;3.17;;
11398;SDS011;5755;48.116;11.608;2024-01-30T09:08:01;10.90;;;4.50;;
11398;SDS011;5755;48.116;11.608;2024-01-30T09:10:30;5.85;;;3.40;;
11398;SDS011;5755;48.116;11.608;2024-01-30T09:12:57;8.45;;;4.07;;
11398;SDS011;5755;48.116;11.608;2024-01-30T09:15:23;8.05;;;3.80;;
11398;SDS011;5755;48.116;11.608;2024-01-30T09:17:50;5.75;;;3.75;;
11398;SDS011;5755;48.116;11.608;2024-01-30T09:20:17;8.73;;;3.90;;
11398;SDS011;5755;48.116;11.608;2024-01-30T09:22:45;6.97;;;4.15;;
11398;SDS011;5755;48.116;11.608;2024-01-30T09:25:14;9.45;;;4.30;;
11398;SDS011;5755;48.116;11.608;2024-01-30T09:27:43;7.35;;;4.00;;
11398;SDS011;5755;48.116;11.608;2024-01-30T09:30:09;5.63;;;3.95;;
11398;SDS011;5755;48.116;11.608;2024-01-30T09:32:37;9.07;;;4.70;;
11398;SDS011;5755;48.116;11.608;2024-01-30T09:35:06;6.78;;;4.32;;
11398;SDS011;5755;48.116;11.608;2024-01-30T09:37:33;7.28;;;4.18;;
11398;SDS011;5755;48.116;11.608;2024-01-30T09:40:00;8.63;;;4.40;;
11398;SDS011;5755;48.116;11.608;2024-01-30T09:42:28;6.95;;;4.40;;
11398;SDS011;5755;48.116;11.608;2024-01-30T09:45:01;7.40;;;4.32;;
11398;SDS011;5755;48.116;11.608;2024-01-30T09:47:30;7.30;;;4.13;;
11398;SDS011;5755;48.116;11.608;2024-01-30T09:49:58;8.90;;;4.57;;
11398;SDS011;5755;48.116;11.608;2024-01-30T09:52:27;6.03;;;4.05;;
11398;SDS011;5755;48.116;11.608;2024-01-30T09:54:54;8.00;;;4.68;;
11398;SDS011;5755;48.116;11.608;2024-01-30T09:57:21;5.82;;;4.65;;
11398;SDS011;5755;48.116;11.608;2024-01-30T09:59:48;6.10;;;4.00;;
11398;SDS011;5755;48.116;11.608;2024-01-30T10:02:18;11.38;;;3.92;;
11398;SDS011;5755;48.116;11.608;2024-01-30T10:04:46;8.75;;;4.20;;
11398;SDS011;5755;48.116;11.608;2024-01-30T10:07:14;7.00;;;3.80;;
11398;SDS011;5755;48.116;11.608;2024-01-30T10:09:42;8.13;;;3.88;;
11398;SDS011;5755;48.116;11.608;2024-01-30T10:12:09;5.57;;;3.63;;
11398;SDS011;5755;48.116;11.608;2024-01-30T10:14:37;7.97;;;3.50;;
11398;SDS011;5755;48.116;11.608;2024-01-30T10:17:04;8.88;;;3.85;;
11398;SDS011;5755;48.116;11.608;2024-01-30T10:19:32;10.00;;;3.70;;
11398;SDS011;5755;48.116;11.608;2024-01-30T10:21:59;7.40;;;3.55;;
11398;SDS011;5755;48.116;11.608;2024-01-30T10:24:26;8.18;;;3.67;;
11398;SDS011;5755;48.116;11.608;2024-01-30T10:26:54;7.88;;;3.53;;
11398;SDS011;5755;48.116;11.608;2024-01-30T10:29:22;6.47;;;3.65;;
11398;SDS011;5755;48.116;11.608;2024-01-30T10:31:57;8.65;;;3.65;;
11398;SDS011;5755;48.116;11.608;2024-01-30T10:34:24;8.18;;;3.80;;
11398;SDS011;5755;48.116;11.608;2024-01-30T10:36:54;8.88;;;3.65;;
11398;SDS011;5755;48.116;11.608;2024-01-30T10:39:31;5.70;;;3.25;;
11398;SDS011;5755;48.116;11.608;2024-01-30T10:42:03;10.77;;;3.40;;
11398;SDS011;5755;48.116;11.608;2024-01-30T10:44:34;7.68;;;3.45;;
11398;SDS011;5755;48.116;11.608;2024-01-30T10:47:09;11.25;;;3.50;;
11398;SDS011;5755;48.116;11.608;2024-01-30T10:49:39;9.15;;;3.80;;
11398;SDS011;5755;48.116;11.608;2024-01-30T10:52:08;7.18;;;3.65;;
11398;SDS011;5755;48.116;11.608;2024-01-30T10:54:36;11.27;;;4.70;;
11398;SDS011;5755;48.116;11.608;2024-01-30T10:57:06;12.38;;;4.00;;
11398;SDS011;5755;48.116;11.608;2024-01-30T10:59:36;15.43;;;3.70;;
11398;SDS011;5755;48.116;11.608;2024-01-30T11:02:03;7.30;;;3.30;;
11398;SDS011;5755;48.116;11.608;2024-01-30T11:04:35;10.60;;;4.25;;
11398;SDS011;5755;48.116;11.608;2024-01-30T11:07:03;4.60;;;2.15;;
11398;SDS011;5755;48.116;11.608;2024-01-30T11:09:47;4.60;;;2.30;;
11398;SDS011;5755;48.116;11.608;2024-01-30T11:12:15;5.13;;;2.45;;
11398;SDS011;5755;48.116;11.608;2024-01-30T11:14:42;4.40;;;2.40;;
11398;SDS011;5755;48.116;11.608;2024-01-30T11:17:09;2.97;;;2.15;;
11398;SDS011;5755;48.116;11.608;2024-01-30T11:19:38;4.18;;;2.40;;
11398;SDS011;5755;48.116;11.608;2024-01-30T11:22:06;5.13;;;2.58;;
11398;SDS011;5755;48.116;11.608;2024-01-30T11:24:38;4.75;;;2.40;;
11398;SDS011;5755;48.116;11.608;2024-01-30T11:27:08;5.20;;;2.80;;
11398;SDS011;5755;48.116;11.608;2024-01-30T11:29:35;4.55;;;2.55;;
11398;SDS011;5755;48.116;11.608;2024-01-30T11:32:02;6.88;;;2.70;;
11398;SDS011;5755;48.116;11.608;2024-01-30T11:34:30;8.27;;;2.30;;
11398;SDS011;5755;48.116;11.608;2024-01-30T11:36:59;5.25;;;2.25;;
11398;SDS011;5755;48.116;11.608;2024-01-30T11:39:30;5.70;;;2.60;;
11398;SDS011;5755;48.116;11.608;2024-01-30T11:41:58;4.28;;;2.40;;
11398;SDS011;5755;48.116;11.608;2024-01-30T11:44:25;3.25;;;2.30;;
11398;SDS011;5755;48.116;11.608;2024-01-30T11:46:52;7.18;;;2.60;;
11398;SDS011;5755;48.116;11.608;2024-01-30T11:49:19;6.60;;;2.42;;
11398;SDS011;5755;48.116;11.608;2024-01-30T11:51:46;8.45;;;2.70;;
11398;SDS011;5755;48.116;11.608;2024-01-30T11:54:14;9.05;;;3.22;;
11398;SDS011;5755;48.116;11.608;2024-01-30T11:56:41;5.65;;;2.92;;
11398;SDS011;5755;48.116;11.608;2024-01-30T11:59:10;8.48;;;2.80;;
11398;SDS011;5755;48.116;11.608;2024-01-30T12:01:37;4.65;;;2.85;;
11398;SDS011;5755;48.116;11.608;2024-01-30T12:04:04;5.75;;;2.60;;
11398;SDS011;5755;48.116;11.608;2024-01-30T12:06:34;5.60;;;2.42;;
11398;SDS011;5755;48.116;11.608;2024-01-30T12:09:01;5.65;;;2.30;;
11398;SDS011;5755;48.116;11.608;2024-01-30T12:11:30;2.10;;;1.90;;
11398;SDS011;5755;48.116;11.608;2024-01-30T12:13:56;6.25;;;2.17;;
11398;SDS011;5755;48.116;11.608;2024-01-30T12:16:25;7.05;;;2.30;;
11398;SDS011;5755;48.116;11.608;2024-01-30T12:18:58;6.40;;;2.10;;
11398;SDS011;5755;48.116;11.608;2024-01-30T12:21:26;7.20;;;2.30;;
11398;SDS011;5755;48.116;11.608;2024-01-30T12:23:53;5.72;;;2.58;;
11398;SDS011;5755;48.116;11.608;2024-01-30T12:26:20;3.55;;;2.30;;
11398;SDS011;5755;48.116;11.608;2024-01-30T12:28:47;5.10;;;2.30;;
11398;SDS011;5755;48.116;11.608;2024-01-30T12:31:15;7.22;;;2.10;;
11398;SDS011;5755;48.116;11.608;2024-01-30T12:33:43;5.25;;;2.25;;
11398;SDS011;5755;48.116;11.608;2024-01-30T12:36:11;3.63;;;2.40;;
11398;SDS011;5755;48.116;11.608;2024-01-30T12:38:38;2.47;;;1.98;;
11398;SDS011;5755;48.116;11.608;2024-01-30T12:41:06;3.50;;;2.05;;
11398;SDS011;5755;48.116;11.608;2024-01-30T12:43:34;2.80;;;1.80;;
11398;SDS011;5755;48.116;11.608;2024-01-30T12:46:01;2.92;;;2.10;;
11398;SDS011;5755;48.116;11.608;2024-01-30T12:48:29;3.65;;;2.08;;
11398;SDS011;5755;48.116;11.608;2024-01-30T12:50:58;3.60;;;2.33;;
11398;SDS011;5755;48.116;11.608;2024-01-30T12:53:25;4.18;;;2.35;;
11398;SDS011;5755;48.116;11.608;2024-01-30T12:55:52;4.97;;;2.10;;
11398;SDS011;5755;48.116;11.608;2024-01-30T12:58:19;4.53;;;2.20;;
11398;SDS011;5755;48.116;11.608;2024-01-30T13:00:46;3.05;;;2.10;;
11398;SDS011;5755;48.116;11.608;2024-01-30T13:03:13;4.78;;;2.50;;
11398;SDS011;5755;48.116;11.608;2024-01-30T13:05:40;4.82;;;2.25;;
11398;SDS011;5755;48.116;11.608;2024-01-30T13:08:08;4.80;;;2.20;;
11398;SDS011;5755;48.116;11.608;2024-01-30T13:10:35;6.93;;;2.10;;
11398;SDS011;5755;48.116;11.608;2024-01-30T13:13:02;7.47;;;2.80;;
11398;SDS011;5755;48.116;11.608;2024-01-30T13:15:29;4.70;;;2.20;;
11398;SDS011;5755;48.116;11.608;2024-01-30T13:17:56;3.72;;;2.08;;
11398;SDS011;5755;48.116;11.608;2024-01-30T13:20:22;5.57;;;2.20;;
11398;SDS011;5755;48.116;11.608;2024-01-30T13:22:49;3.88;;;2.25;;
11398;SDS011;5755;48.116;11.608;2024-01-30T13:25:17;4.80;;;2.15;;
11398;SDS011;5755;48.116;11.608;2024-01-30T13:27:44;4.93;;;2.70;;
11398;SDS011;5755;48.116;11.608;2024-01-30T13:30:11;6.78;;;2.78;;
11398;SDS011;5755;48.116;11.608;2024-01-30T13:32:39;8.43;;;2.15;;
11398;SDS011;5755;48.116;11.608;2024-01-30T13:35:09;4.93;;;2.50;;
11398;SDS011;5755;48.116;11.608;2024-01-30T13:37:36;6.43;;;2.30;;
11398;SDS011;5755;48.116;11.608;2024-01-30T13:40:03;4.10;;;2.38;;
11398;SDS011;5755;48.116;11.608;2024-01-30T13:42:34;4.45;;;2.10;;
11398;SDS011;5755;48.116;11.608;2024-01-30T13:45:01;5.18;;;2.17;;
11398;SDS011;5755;48.116;11.608;2024-01-30T13:47:28;8.88;;;2.53;;
11398;SDS011;5755;48.116;11.608;2024-01-30T13:49:54;7.22;;;2.45;;
11398;SDS011;5755;48.116;11.608;2024-01-30T13:52:21;5.28;;;3.10;;
11398;SDS011;5755;48.116;11.608;2024-01-30T13:54:48;5.70;;;2.40;;
11398;SDS011;5755;48.116;11.608;2024-01-30T13:57:15;4.07;;;2.40;;
11398;SDS011;5755;48.116;11.608;2024-01-30T13:59:43;4.53;;;2.25;;
11398;SDS011;5755;48.116;11.608;2024-01-30T14:02:09;3.10;;;1.80;;
11398;SDS011;5755;48.116;11.608;2024-01-30T14:04:36;2.30;;;2.10;;
11398;SDS011;5755;48.116;11.608;2024-01-30T14:07:03;3.20;;;2.13;;
11398;SDS011;5755;48.116;11.608;2024-01-30T14:09:31;4.45;;;2.28;;
11398;SDS011;5755;48.116;11.608;2024-01-30T14:11:59;8.45;;;2.17;;
11398;SDS011;5755;48.116;11.608;2024-01-30T14:14:26;4.82;;;2.25;;
11398;SDS011;5755;48.116;11.608;2024-01-30T14:16:54;4.10;;;2.00;;
11398;SDS011;5755;48.116;11.608;2024-01-30T14:19:21;3.45;;;2.03;;
11398;SDS011;5755;48.116;11.608;2024-01-30T14:21:48;7.00;;;2.45;;
11398;SDS011;5755;48.116;11.608;2024-01-30T14:24:14;7.00;;;2.80;;
11398;SDS011;5755;48.116;11.608;2024-01-30T14:26:41;5.93;;;2.92;;
11398;SDS011;5755;48.116;11.608;2024-01-30T14:29:09;6.35;;;2.60;;
11398;SDS011;5755;48.116;11.608;2024-01-30T14:31:36;3.70;;;2.20;;
11398;SDS011;5755;48.116;11.608;2024-01-30T14:34:04;5.45;;;2.00;;
11398;SDS011;5755;48.116;11.608;2024-01-30T14:36:45;6.20;;;2.40;;
11398;SDS011;5755;48.116;11.608;2024-01-30T14:39:12;6.97;;;2.75;;
11398;SDS011;5755;48.116;11.608;2024-01-30T14:41:39;4.80;;;2.60;;
11398;SDS011;5755;48.116;11.608;2024-01-30T14:44:06;9.80;;;2.53;;
11398;SDS011;5755;48.116;11.608;2024-01-30T14:46:34;7.25;;;2.60;;
11398;SDS011;5755;48.116;11.608;2024-01-30T14:49:01;6.90;;;2.90;;